Time;durP1;ratioP1;P1;durP2;ratioP2;P2;SDS_P1;SDS_P2;PMS_P1;PMS_P2;Temp;Humidity;BMP_temperature;BMP_pressure;BME280_temperature;BME280_humidity;BME280_pressure;Samples;Min_cycle;Max_cycle;Signal;HPM_P1;HPM_P2
2022/05/01 05:00:18;;;;;;;33.73;28.97;;;11.60;97.20;;;;;;1715129;28;20182;-76
2022/05/01 05:01:09;;;;;;;35.42;29.60;;;11.60;97.20;;;;;;1714792;28;20308;-76
2022/05/01 05:02:01;;;;;;;39.43;30.40;;;11.60;97.20;;;;;;1715145;28;20260;-76
2022/05/01 05:02:53;;;;;;;31.73;28.33;;;11.60;97.20;;;;;;1715069;28;20256;-77
2022/05/01 05:03:45;;;;;;;36.90;28.25;;;11.60;97.20;;;;;;1715060;28;20202;-76
2022/05/01 05:04:36;;;;;;;33.10;28.08;;;11.60;97.20;;;;;;1715310;28;20680;-77
2022/05/01 05:05:29;;;;;;;40.80;31.10;;;11.70;97.20;;;;;;1715252;28;20684;-76
2022/05/01 05:06:23;;;;;;;36.30;29.30;;;11.70;97.20;;;;;;1714749;28;20205;-77
2022/05/01 05:07:14;;;;;;;35.05;28.98;;;11.70;97.20;;;;;;1715229;28;20198;-76
2022/05/01 05:10:30;;;;;;;33.22;28.02;;;11.70;97.20;;;;;;1701165;29;20246;-77
2022/05/01 05:11:21;;;;;;;38.67;30.23;;;11.70;97.20;;;;;;1711431;28;20727;-76
2022/05/01 05:12:12;;;;;;;38.30;28.77;;;11.70;97.20;;;;;;1715242;28;20449;-77
2022/05/01 05:13:06;;;;;;;34.97;29.00;;;11.70;97.20;;;;;;1715287;28;20212;-77
2022/05/01 05:13:57;;;;;;;39.85;30.77;;;11.70;97.20;;;;;;1715074;28;20866;-77
2022/05/01 05:14:51;;;;;;;38.83;29.08;;;11.70;97.20;;;;;;1715097;28;20272;-76
2022/05/01 05:15:46;;;;;;;36.97;30.20;;;11.70;97.20;;;;;;1715026;28;20249;-77
2022/05/01 05:16:37;;;;;;;41.83;31.48;;;11.70;97.20;;;;;;1714898;28;20205;-77
2022/05/01 05:17:31;;;;;;;38.35;29.85;;;11.70;97.20;;;;;;1715280;28;20693;-76
2022/05/01 05:18:23;;;;;;;37.80;30.52;;;11.70;97.20;;;;;;1714653;28;20232;-76
2022/05/01 05:19:13;;;;;;;35.20;29.27;;;11.70;97.20;;;;;;1715158;28;20210;-76
2022/05/01 05:20:07;;;;;;;35.97;29.13;;;11.70;97.20;;;;;;1715385;28;20201;-76
2022/05/01 05:20:57;;;;;;;38.53;29.63;;;11.70;97.20;;;;;;1715155;28;20226;-77
2022/05/01 05:21:49;;;;;;;36.90;28.47;;;11.80;97.20;;;;;;1715223;28;20277;-76
2022/05/01 05:22:41;;;;;;;37.05;30.17;;;11.80;97.20;;;;;;1715117;28;20217;-76
2022/05/01 05:23:32;;;;;;;35.50;29.48;;;11.80;97.20;;;;;;1715382;28;20206;-77
2022/05/01 05:24:24;;;;;;;35.87;29.80;;;11.80;97.20;;;;;;1715352;28;20260;-76
2022/05/01 05:25:15;;;;;;;34.80;28.70;;;11.80;97.20;;;;;;1715828;28;20208;-77
2022/05/01 05:26:07;;;;;;;38.75;30.90;;;11.80;97.20;;;;;;1719008;28;20206;-76
2022/05/01 05:26:58;;;;;;;36.75;28.90;;;11.80;97.20;;;;;;1718394;28;20205;-76
2022/05/01 05:27:49;;;;;;;34.83;29.03;;;11.80;97.20;;;;;;1716133;28;20566;-77
2022/05/01 05:28:40;;;;;;;33.17;27.63;;;11.80;97.20;;;;;;1715866;28;20608;-77
2022/05/01 05:29:32;;;;;;;37.07;30.03;;;11.80;97.20;;;;;;1716191;28;20201;-76
2022/05/01 05:30:23;;;;;;;42.50;31.33;;;11.80;97.20;;;;;;1716142;28;20217;-77
2022/05/01 05:31:16;;;;;;;35.40;27.30;;;11.80;97.20;;;;;;1716075;28;20205;-77
2022/05/01 05:32:07;;;;;;;35.58;29.58;;;11.80;97.20;;;;;;1715878;28;20230;-76
2022/05/01 05:32:59;;;;;;;35.03;28.45;;;11.80;97.20;;;;;;1716353;28;20661;-77
2022/05/01 05:33:50;;;;;;;36.90;29.63;;;11.80;97.20;;;;;;1717012;28;20201;-77
2022/05/01 05:34:41;;;;;;;35.27;29.67;;;11.80;97.20;;;;;;1717249;28;20202;-77
2022/05/01 05:35:32;;;;;;;35.25;28.42;;;11.80;97.20;;;;;;1717567;28;20202;-77
2022/05/01 05:36:24;;;;;;;35.87;29.27;;;11.80;97.20;;;;;;1717117;28;20289;-77
2022/05/01 05:37:15;;;;;;;38.88;29.90;;;11.80;97.20;;;;;;1716772;28;20202;-76
2022/05/01 05:38:07;;;;;;;39.17;31.15;;;11.90;97.20;;;;;;1716713;28;20198;-77
2022/05/01 05:38:57;;;;;;;33.95;28.80;;;11.90;97.20;;;;;;1717620;28;20229;-77
2022/05/01 05:39:49;;;;;;;32.83;28.43;;;11.90;97.20;;;;;;1717156;28;20200;-77
2022/05/01 05:40:40;;;;;;;33.45;28.90;;;11.90;97.20;;;;;;1716875;28;20261;-77
2022/05/01 05:41:32;;;;;;;37.20;29.53;;;11.90;97.20;;;;;;1717633;28;20624;-77
2022/05/01 05:42:23;;;;;;;36.38;29.88;;;11.90;97.20;;;;;;1717420;28;20209;-77
2022/05/01 05:43:14;;;;;;;33.73;28.23;;;11.90;97.20;;;;;;1717687;28;20261;-77
2022/05/01 05:44:05;;;;;;;36.85;29.20;;;11.90;97.20;;;;;;1717372;28;20454;-77
2022/05/01 05:44:57;;;;;;;33.53;28.20;;;11.90;97.20;;;;;;1718376;28;20202;-77
2022/05/01 05:45:47;;;;;;;34.53;28.80;;;11.90;97.20;;;;;;1717543;28;20441;-77
2022/05/01 05:46:41;;;;;;;37.43;29.23;;;11.90;97.20;;;;;;1717344;28;20194;-77
2022/05/01 05:47:31;;;;;;;35.00;28.27;;;11.90;97.20;;;;;;1714651;28;20245;-76
2022/05/01 05:48:23;;;;;;;35.33;28.87;;;11.90;97.20;;;;;;1714372;28;20206;-77
2022/05/01 05:49:14;;;;;;;36.72;28.25;;;11.90;97.20;;;;;;1714531;28;20221;-76
2022/05/01 05:50:07;;;;;;;35.00;29.13;;;11.90;97.20;;;;;;1714738;28;20220;-76
2022/05/01 05:50:58;;;;;;;34.03;27.90;;;11.90;97.20;;;;;;1714532;28;20230;-77
2022/05/01 05:51:49;;;;;;;37.10;29.23;;;11.90;97.20;;;;;;1714685;28;20197;-77
2022/05/01 05:52:40;;;;;;;35.65;28.00;;;11.90;97.20;;;;;;1714643;28;20453;-77
2022/05/01 05:53:32;;;;;;;35.90;29.23;;;11.90;97.20;;;;;;1714783;28;20200;-77
2022/05/01 05:54:23;;;;;;;38.10;30.05;;;11.90;97.20;;;;;;1714773;28;20237;-77
2022/05/01 05:55:14;;;;;;;34.37;28.57;;;11.90;97.20;;;;;;1714684;28;20213;-77
2022/05/01 05:56:05;;;;;;;35.17;29.30;;;11.90;97.20;;;;;;1714702;28;20238;-77
2022/05/01 05:56:57;;;;;;;31.45;27.45;;;12.00;97.20;;;;;;1714428;28;20204;-77
2022/05/01 05:57:48;;;;;;;33.95;28.27;;;12.00;97.20;;;;;;1714533;28;20209;-77
2022/05/01 05:58:39;;;;;;;32.33;27.37;;;12.00;97.20;;;;;;1714290;28;20200;-76
2022/05/01 05:59:30;;;;;;;35.95;28.92;;;12.00;97.20;;;;;;1714545;28;20236;-76
2022/05/01 06:00:22;;;;;;;33.90;26.60;;;12.00;97.20;;;;;;1714261;28;20206;-76
2022/05/01 06:01:13;;;;;;;34.13;27.83;;;12.00;97.20;;;;;;1714586;28;20213;-76
2022/05/01 06:02:07;;;;;;;34.43;28.40;;;12.00;97.20;;;;;;1714565;28;20213;-76
2022/05/01 06:02:58;;;;;;;31.08;27.10;;;12.00;97.20;;;;;;1714625;28;20206;-76
2022/05/01 06:03:50;;;;;;;37.93;28.63;;;12.00;97.20;;;;;;1714490;28;20225;-75
2022/05/01 06:04:42;;;;;;;35.15;29.60;;;12.10;97.20;;;;;;1714493;28;20213;-76
2022/05/01 06:05:32;;;;;;;30.55;25.83;;;12.10;97.20;;;;;;1714546;28;20216;-76
2022/05/01 06:06:24;;;;;;;33.63;27.50;;;12.10;97.20;;;;;;1714263;28;20201;-77
2022/05/01 06:07:15;;;;;;;33.33;28.63;;;12.10;97.20;;;;;;1714542;28;20210;-76
2022/05/01 06:08:07;;;;;;;36.30;27.77;;;12.10;97.20;;;;;;1714159;28;20202;-75
2022/05/01 06:08:58;;;;;;;32.97;28.05;;;12.10;97.20;;;;;;1714361;28;20675;-76
2022/05/01 06:09:49;;;;;;;31.40;27.80;;;12.10;97.20;;;;;;1714450;28;20547;-77
2022/05/01 06:10:40;;;;;;;30.85;26.83;;;12.10;97.20;;;;;;1714468;28;20226;-76
2022/05/01 06:11:32;;;;;;;32.27;27.90;;;12.10;97.20;;;;;;1714549;28;20208;-76
2022/05/01 06:12:22;;;;;;;39.08;29.02;;;12.10;97.20;;;;;;1714477;28;20209;-76
2022/05/01 06:13:14;;;;;;;31.43;27.43;;;12.10;97.20;;;;;;1714207;28;20475;-76
2022/05/01 06:14:05;;;;;;;33.70;28.10;;;12.20;97.20;;;;;;1714234;28;20198;-76
2022/05/01 06:14:57;;;;;;;30.43;26.93;;;12.20;97.20;;;;;;1714590;28;20208;-76
2022/05/01 06:15:48;;;;;;;34.50;28.30;;;12.20;97.20;;;;;;1707779;29;20434;-77
2022/05/01 06:16:39;;;;;;;28.50;25.40;;;12.20;97.20;;;;;;1708202;28;20206;-76
2022/05/01 06:17:31;;;;;;;31.90;27.45;;;12.20;97.20;;;;;;1707872;28;20477;-76
2022/05/01 06:18:23;;;;;;;31.92;28.02;;;12.30;97.20;;;;;;1707426;28;20265;-75
2022/05/01 06:19:15;;;;;;;30.88;26.88;;;12.30;97.20;;;;;;1707750;28;20210;-75
2022/05/01 06:20:07;;;;;;;35.13;29.55;;;12.30;97.20;;;;;;1707802;28;20206;-75
2022/05/01 06:20:59;;;;;;;31.40;27.13;;;12.30;97.20;;;;;;1708100;28;20590;-76
2022/05/01 06:21:50;;;;;;;32.95;27.60;;;12.30;97.20;;;;;;1708480;28;20214;-76
2022/05/01 06:22:41;;;;;;;30.40;26.90;;;12.30;97.20;;;;;;1708750;28;20213;-78
2022/05/01 06:23:34;;;;;;;32.65;26.92;;;12.40;97.20;;;;;;1713054;28;20237;-79
2022/05/01 06:24:26;;;;;;;28.95;24.88;;;12.40;97.20;;;;;;1715694;28;20585;-78
2022/05/01 06:25:17;;;;;;;29.98;26.60;;;12.40;97.20;;;;;;1721740;28;20209;-76
2022/05/01 06:26:10;;;;;;;29.53;26.37;;;12.40;97.20;;;;;;1718231;28;20236;-77
2022/05/01 06:27:01;;;;;;;30.27;26.35;;;12.40;97.20;;;;;;1715589;28;20665;-77
2022/05/01 06:27:52;;;;;;;30.33;26.20;;;12.50;97.20;;;;;;1715440;28;20551;-78
2022/05/01 06:28:43;;;;;;;32.17;26.15;;;12.50;97.20;;;;;;1714688;28;20214;-78
2022/05/01 06:29:35;;;;;;;29.37;26.20;;;12.50;97.20;;;;;;1714954;28;20210;-78
2022/05/01 06:30:25;;;;;;;30.17;26.92;;;12.50;97.20;;;;;;1714665;28;20202;-77
2022/05/01 06:31:17;;;;;;;30.43;25.47;;;12.50;97.20;;;;;;1715098;28;20204;-76
2022/05/01 06:32:08;;;;;;;33.80;26.05;;;12.50;97.20;;;;;;1715006;28;20214;-77
2022/05/01 06:33:02;;;;;;;31.83;25.05;;;12.60;97.20;;;;;;1715108;28;20555;-78
2022/05/01 06:33:53;;;;;;;29.48;26.48;;;12.60;97.20;;;;;;1714958;28;20201;-77
2022/05/01 06:34:45;;;;;;;31.13;26.27;;;12.60;97.20;;;;;;1714807;28;20202;-78
2022/05/01 06:35:36;;;;;;;30.67;26.75;;;12.60;97.20;;;;;;1714716;28;20445;-76
2022/05/01 06:36:29;;;;;;;28.45;25.38;;;12.60;97.20;;;;;;1714239;28;20229;-76
2022/05/01 06:37:19;;;;;;;30.52;25.33;;;12.60;97.20;;;;;;1714381;28;20213;-76
2022/05/01 06:38:11;;;;;;;31.40;26.13;;;12.60;97.20;;;;;;1714241;28;20201;-77
2022/05/01 06:39:03;;;;;;;29.40;26.23;;;12.60;97.20;;;;;;1714408;28;20229;-77
2022/05/01 06:39:54;;;;;;;29.60;26.40;;;12.60;97.20;;;;;;1714349;28;20252;-77
2022/05/01 06:40:46;;;;;;;28.85;25.77;;;12.70;97.20;;;;;;1714148;28;20272;-77
2022/05/01 06:41:38;;;;;;;28.65;24.90;;;12.70;97.20;;;;;;1714686;28;20293;-76
2022/05/01 06:42:29;;;;;;;30.45;26.98;;;12.70;97.20;;;;;;1714369;28;20630;-77
2022/05/01 06:43:21;;;;;;;28.80;25.65;;;12.70;97.20;;;;;;1714603;28;20300;-77
2022/05/01 06:44:12;;;;;;;29.10;25.92;;;12.70;97.20;;;;;;1714301;28;20216;-76
2022/05/01 06:45:04;;;;;;;27.30;24.37;;;12.70;97.20;;;;;;1714114;28;20297;-75
2022/05/01 06:45:55;;;;;;;30.73;25.83;;;12.70;97.20;;;;;;1714118;28;20240;-76
2022/05/01 06:46:47;;;;;;;28.70;24.03;;;12.70;97.20;;;;;;1714221;28;20204;-76
2022/05/01 06:47:38;;;;;;;28.20;25.25;;;12.70;97.20;;;;;;1714223;28;20203;-76
2022/05/01 06:48:31;;;;;;;30.27;26.90;;;12.70;97.20;;;;;;1713367;28;20289;-75
2022/05/01 06:49:21;;;;;;;28.65;25.00;;;12.70;97.20;;;;;;1713857;28;20764;-75
2022/05/01 06:50:14;;;;;;;26.80;24.10;;;12.70;97.20;;;;;;1713872;28;20605;-75
2022/05/01 06:51:04;;;;;;;27.15;23.90;;;12.70;97.20;;;;;;1714171;28;20630;-75
2022/05/01 06:51:56;;;;;;;33.40;26.63;;;12.70;97.20;;;;;;1714164;28;20197;-75
2022/05/01 06:52:47;;;;;;;28.02;25.00;;;12.70;97.20;;;;;;1714251;28;20511;-75
2022/05/01 06:53:39;;;;;;;29.90;25.83;;;12.70;97.20;;;;;;1714295;28;20206;-75
2022/05/01 06:54:29;;;;;;;30.63;26.20;;;12.70;97.20;;;;;;1714113;28;20931;-75
2022/05/01 06:55:23;;;;;;;31.10;25.27;;;12.80;97.20;;;;;;1714228;28;20677;-76
2022/05/01 06:56:14;;;;;;;28.92;25.65;;;12.80;97.20;;;;;;1714104;28;20206;-75
2022/05/01 06:57:05;;;;;;;28.00;24.97;;;12.80;97.20;;;;;;1714222;28;20210;-74
2022/05/01 06:57:56;;;;;;;27.98;24.98;;;12.80;97.20;;;;;;1714229;28;20582;-77
2022/05/01 06:58:48;;;;;;;28.27;24.95;;;12.80;97.20;;;;;;1711812;28;20946;-75
2022/05/01 06:59:39;;;;;;;27.55;24.67;;;12.80;97.20;;;;;;1713043;28;20198;-75
2022/05/01 07:00:31;;;;;;;29.00;24.70;;;12.80;97.20;;;;;;1713833;28;20216;-73
2022/05/01 07:01:22;;;;;;;27.83;24.92;;;12.80;97.20;;;;;;1714310;28;21068;-76
2022/05/01 07:02:14;;;;;;;33.10;25.83;;;12.90;97.20;;;;;;1716380;28;20194;-79
2022/05/01 07:03:05;;;;;;;28.17;24.65;;;12.90;97.20;;;;;;1717051;28;20217;-78
2022/05/01 07:03:58;;;;;;;27.77;24.83;;;12.90;97.20;;;;;;1716056;28;20202;-77
2022/05/01 07:04:49;;;;;;;28.77;25.70;;;12.90;97.20;;;;;;1716213;28;20448;-78
2022/05/01 07:05:41;;;;;;;29.27;26.13;;;12.90;97.20;;;;;;1714632;28;20687;-79
2022/05/01 07:06:32;;;;;;;29.73;26.63;;;12.90;97.20;;;;;;1714949;28;20209;-79
2022/05/01 07:07:23;;;;;;;28.93;24.70;;;12.90;97.20;;;;;;1714674;28;20225;-78
2022/05/01 07:08:14;;;;;;;27.42;24.42;;;12.90;97.20;;;;;;1714636;28;20218;-78
2022/05/01 07:09:06;;;;;;;26.88;24.08;;;13.00;97.20;;;;;;1714807;28;20236;-78
2022/05/01 07:09:57;;;;;;;28.95;25.83;;;12.90;97.20;;;;;;1714189;28;20213;-76
2022/05/01 07:10:48;;;;;;;25.73;23.03;;;13.00;97.20;;;;;;1714101;28;20218;-75
2022/05/01 07:11:39;;;;;;;27.55;24.60;;;13.00;97.20;;;;;;1714788;28;20692;-78
2022/05/01 07:12:31;;;;;;;27.13;24.27;;;13.00;97.20;;;;;;1714815;28;20675;-78
2022/05/01 07:13:22;;;;;;;27.30;24.40;;;13.00;97.20;;;;;;1714821;28;20241;-78
2022/05/01 07:14:13;;;;;;;26.83;23.92;;;13.00;97.20;;;;;;1715057;28;20243;-78
2022/05/01 07:15:06;;;;;;;29.33;25.23;;;13.00;97.20;;;;;;1715288;28;20208;-77
2022/05/01 07:15:57;;;;;;;26.38;23.60;;;13.10;97.20;;;;;;1714850;28;20202;-77
2022/05/01 07:16:49;;;;;;;26.87;24.00;;;13.10;97.20;;;;;;1714763;28;20210;-78
2022/05/01 07:17:39;;;;;;;27.73;23.83;;;13.10;97.20;;;;;;1715049;28;20209;-77
2022/05/01 07:18:31;;;;;;;28.00;24.17;;;13.10;97.20;;;;;;1714271;28;20206;-77
2022/05/01 07:19:23;;;;;;;25.52;22.95;;;13.10;97.20;;;;;;1714801;28;20475;-76
2022/05/01 07:20:15;;;;;;;26.50;23.70;;;13.10;97.20;;;;;;1714136;28;20205;-77
2022/05/01 07:21:06;;;;;;;29.23;24.55;;;13.10;97.20;;;;;;1713844;28;20244;-75
2022/05/01 07:21:58;;;;;;;27.57;24.20;;;13.20;97.20;;;;;;1714741;28;20209;-76
2022/05/01 07:22:48;;;;;;;27.60;24.70;;;13.20;97.20;;;;;;1714222;28;20206;-76
2022/05/01 07:23:40;;;;;;;27.10;24.20;;;13.20;97.20;;;;;;1715136;28;20202;-78
2022/05/01 07:24:31;;;;;;;28.77;25.45;;;13.20;97.20;;;;;;1715122;28;20209;-75
2022/05/01 07:25:23;;;;;;;28.20;25.27;;;13.20;97.20;;;;;;1714329;28;20198;-76
2022/05/01 07:26:13;;;;;;;28.63;25.65;;;13.20;97.20;;;;;;1714081;28;20247;-76
2022/05/01 07:27:05;;;;;;;27.07;24.17;;;13.20;97.20;;;;;;1713835;28;20202;-76
2022/05/01 07:27:56;;;;;;;28.90;24.75;;;13.20;97.20;;;;;;1714077;28;20236;-76
2022/05/01 07:28:48;;;;;;;29.30;24.57;;;13.20;97.20;;;;;;1713723;28;20213;-76
2022/05/01 07:29:39;;;;;;;29.13;26.08;;;13.30;97.20;;;;;;1713884;28;20257;-76
2022/05/01 07:30:31;;;;;;;27.37;24.50;;;13.30;97.20;;;;;;1714063;28;20272;-76
2022/05/01 07:31:21;;;;;;;26.77;24.00;;;13.30;97.20;;;;;;1713996;28;20464;-76
2022/05/01 07:32:13;;;;;;;29.53;25.43;;;13.30;97.20;;;;;;1714119;28;20284;-76
2022/05/01 07:33:05;;;;;;;28.55;24.55;;;13.30;97.20;;;;;;1714141;28;20633;-76
2022/05/01 07:33:58;;;;;;;26.40;23.70;;;13.40;97.20;;;;;;1715549;28;20201;-77
2022/05/01 07:34:50;;;;;;;27.00;24.15;;;13.40;97.20;;;;;;1714075;28;20209;-76
2022/05/01 07:35:43;;;;;;;26.77;24.08;;;13.40;97.20;;;;;;1714014;28;20217;-76
2022/05/01 07:36:33;;;;;;;26.10;23.45;;;13.40;97.20;;;;;;1714267;28;20804;-76
2022/05/01 07:37:26;;;;;;;28.10;24.70;;;13.50;97.20;;;;;;1714208;28;20624;-76
2022/05/01 07:38:17;;;;;;;26.63;23.77;;;13.50;97.20;;;;;;1712805;28;20454;-76
2022/05/01 07:39:09;;;;;;;26.20;23.40;;;13.50;97.20;;;;;;1710599;28;20202;-76
2022/05/01 07:40:01;;;;;;;25.17;22.23;;;13.50;97.20;;;;;;1710580;28;20469;-76
2022/05/01 07:40:53;;;;;;;26.75;23.98;;;13.60;97.20;;;;;;1711827;28;20257;-76
2022/05/01 07:41:44;;;;;;;26.23;23.42;;;13.60;97.20;;;;;;1711792;28;20217;-76
2022/05/01 07:42:36;;;;;;;25.80;23.03;;;13.60;97.20;;;;;;1712098;28;20200;-76
2022/05/01 07:43:26;;;;;;;27.55;24.52;;;13.70;97.20;;;;;;1711844;28;20461;-76
2022/05/01 07:44:18;;;;;;;26.40;22.90;;;13.70;97.20;;;;;;1712370;28;20569;-76
2022/05/01 07:45:10;;;;;;;26.30;23.55;;;13.70;97.20;;;;;;1711672;28;20728;-76
2022/05/01 07:46:03;;;;;;;27.95;24.52;;;13.80;97.20;;;;;;1712534;28;20277;-76
2022/05/01 07:46:54;;;;;;;28.27;25.40;;;13.80;97.20;;;;;;1711996;28;20529;-76
2022/05/01 07:47:46;;;;;;;26.80;23.50;;;13.80;97.20;;;;;;1711728;28;20201;-76
2022/05/01 07:48:37;;;;;;;25.50;22.77;;;13.80;97.20;;;;;;1711514;28;20228;-77
2022/05/01 07:49:29;;;;;;;25.37;22.63;;;13.90;97.20;;;;;;1711692;28;20221;-76
2022/05/01 07:50:22;;;;;;;26.27;23.48;;;13.90;97.20;;;;;;1711396;28;20588;-76
2022/05/01 07:51:16;;;;;;;27.50;24.65;;;14.00;97.20;;;;;;1712010;28;20230;-76
2022/05/01 07:52:07;;;;;;;28.88;25.15;;;14.00;97.20;;;;;;1712467;28;20198;-76
2022/05/01 07:52:59;;;;;;;26.00;23.25;;;14.10;97.20;;;;;;1711935;28;20202;-76
2022/05/01 07:53:50;;;;;;;26.42;23.73;;;14.10;97.20;;;;;;1712001;28;20194;-76
2022/05/01 07:54:41;;;;;;;26.27;23.37;;;14.20;97.20;;;;;;1712521;28;20273;-76
2022/05/01 07:55:33;;;;;;;26.23;23.25;;;14.20;97.20;;;;;;1712921;28;20217;-78
2022/05/01 07:56:25;;;;;;;26.25;23.42;;;14.30;97.20;;;;;;1713681;28;20206;-78
2022/05/01 07:57:16;;;;;;;27.58;24.63;;;14.30;97.20;;;;;;1714188;28;20688;-78
2022/05/01 07:58:07;;;;;;;27.55;24.65;;;14.30;97.20;;;;;;1714251;28;20241;-78
2022/05/01 07:58:59;;;;;;;29.27;23.90;;;14.20;97.20;;;;;;1714430;28;20194;-78
2022/05/01 07:59:50;;;;;;;26.10;23.35;;;14.10;97.20;;;;;;1713709;28;20245;-76
2022/05/01 08:00:42;;;;;;;28.00;25.00;;;14.10;97.20;;;;;;1712999;28;20228;-76
2022/05/01 08:01:33;;;;;;;26.98;24.15;;;14.10;97.20;;;;;;1713716;28;20460;-75
2022/05/01 08:02:24;;;;;;;27.52;24.55;;;14.10;97.20;;;;;;1713372;28;20281;-75
2022/05/01 08:04:28;;;;;;;26.08;23.42;;;14.10;97.20;;;;;;1714164;28;20729;-76
2022/05/01 08:05:23;;;;;;;27.92;24.70;;;14.20;97.20;;;;;;1713249;28;20194;-77
2022/05/01 08:06:16;;;;;;;28.00;25.10;;;14.20;97.20;;;;;;1713656;28;20201;-76
2022/05/01 08:07:08;;;;;;;25.85;22.98;;;14.20;97.20;;;;;;1713305;28;20206;-77
2022/05/01 08:07:59;;;;;;;26.52;23.83;;;14.20;97.20;;;;;;1715118;28;20215;-78
2022/05/01 08:08:50;;;;;;;27.08;24.05;;;14.30;97.20;;;;;;1714214;28;20201;-76
2022/05/01 08:09:42;;;;;;;27.13;22.90;;;14.30;97.20;;;;;;1713415;28;20236;-76
2022/05/01 08:10:33;;;;;;;26.65;23.48;;;14.30;97.20;;;;;;1713176;28;20249;-76
2022/05/01 08:11:25;;;;;;;25.13;21.80;;;14.30;97.20;;;;;;1715137;28;20771;-78
2022/05/01 08:12:16;;;;;;;28.50;25.02;;;14.30;97.20;;;;;;1714080;28;20584;-76
2022/05/01 08:13:08;;;;;;;26.13;23.40;;;14.30;97.20;;;;;;1714296;28;20553;-76
2022/05/01 08:13:58;;;;;;;26.83;22.92;;;14.20;97.20;;;;;;1714353;28;20229;-77
2022/05/01 08:14:50;;;;;;;25.90;22.77;;;14.30;97.20;;;;;;1714043;28;20201;-76
2022/05/01 08:15:41;;;;;;;26.73;23.33;;;14.30;97.20;;;;;;1713636;28;20201;-76
2022/05/01 08:16:33;;;;;;;25.87;22.90;;;14.30;97.20;;;;;;1713606;28;20232;-76
2022/05/01 08:17:24;;;;;;;29.92;23.60;;;14.30;97.20;;;;;;1713546;28;20205;-76
2022/05/01 08:21:45;;;;;;;26.50;23.17;;;14.40;97.20;;;;;;1713912;28;20700;-76
2022/05/01 08:22:36;;;;;;;26.45;23.20;;;14.50;97.20;;;;;;1714061;28;20248;-77
2022/05/01 08:23:28;;;;;;;25.80;23.00;;;14.50;97.20;;;;;;1714308;28;20204;-76
2022/05/01 08:24:19;;;;;;;24.33;21.83;;;14.50;97.20;;;;;;1714944;28;20220;-75
2022/05/01 08:25:10;;;;;;;26.88;22.63;;;14.60;97.20;;;;;;1713530;28;20201;-76
2022/05/01 08:26:03;;;;;;;26.15;23.35;;;14.60;97.20;;;;;;1713555;28;20296;-76
2022/05/01 08:26:55;;;;;;;24.92;22.38;;;14.70;97.20;;;;;;1714065;28;20221;-76
2022/05/01 08:27:45;;;;;;;26.20;21.92;;;14.80;97.20;;;;;;1713427;28;20272;-76
2022/05/01 08:28:40;;;;;;;24.40;21.57;;;14.80;97.20;;;;;;1713214;28;20212;-77
2022/05/01 08:29:32;;;;;;;23.23;20.92;;;14.80;97.20;;;;;;1713355;28;20205;-77
2022/05/01 08:30:23;;;;;;;25.33;22.73;;;14.80;97.20;;;;;;1713116;28;20208;-77
2022/05/01 08:31:14;;;;;;;26.95;22.30;;;14.80;97.20;;;;;;1714164;28;20197;-77
2022/05/01 08:32:07;;;;;;;25.00;22.47;;;14.80;97.20;;;;;;1713693;28;20293;-77
2022/05/01 08:32:59;;;;;;;26.70;23.13;;;14.80;97.20;;;;;;1712824;28;20206;-76
2022/05/01 08:33:51;;;;;;;23.60;21.15;;;14.90;97.20;;;;;;1712989;28;20594;-76
2022/05/01 08:34:41;;;;;;;23.13;20.83;;;14.90;97.20;;;;;;1712982;28;20194;-76
2022/05/01 08:35:33;;;;;;;24.50;21.93;;;14.90;97.20;;;;;;1713220;28;20202;-76
2022/05/01 08:36:24;;;;;;;23.00;20.60;;;15.00;97.20;;;;;;1712282;28;20194;-77
2022/05/01 08:37:17;;;;;;;21.30;19.10;;;15.00;97.20;;;;;;1713881;28;20201;-77
2022/05/01 08:38:08;;;;;;;20.33;18.33;;;15.10;97.20;;;;;;1714983;28;20457;-76
2022/05/01 08:39:00;;;;;;;22.87;19.47;;;15.20;97.20;;;;;;1715250;28;20205;-77
2022/05/01 08:39:50;;;;;;;21.55;19.25;;;15.30;97.20;;;;;;1713779;28;22137;-77
2022/05/01 08:40:46;;;;;;;23.17;20.30;;;15.40;97.20;;;;;;1712830;28;20773;-76
2022/05/01 08:41:37;;;;;;;23.50;21.00;;;15.50;97.20;;;;;;1712848;28;20886;-76
2022/05/01 08:42:31;;;;;;;22.63;20.37;;;15.60;97.20;;;;;;1713974;28;20202;-76
2022/05/01 08:43:24;;;;;;;24.10;20.88;;;15.70;97.20;;;;;;1712513;28;20453;-76
2022/05/01 08:44:30;;;;;;;23.92;21.33;;;15.80;97.20;;;;;;1712515;28;20204;-76
2022/05/01 08:45:26;;;;;;;21.33;19.23;;;15.90;97.20;;;;;;1713025;28;20229;-75
2022/05/01 08:46:32;;;;;;;21.63;19.33;;;15.90;97.20;;;;;;1713722;28;20191;-76
2022/05/01 08:47:25;;;;;;;21.48;19.20;;;15.90;97.20;;;;;;1713062;28;20237;-76
2022/05/01 08:48:25;;;;;;;22.52;20.15;;;15.90;97.20;;;;;;1712572;28;20212;-76
2022/05/01 08:49:17;;;;;;;22.00;19.20;;;15.90;97.20;;;;;;1712922;28;20206;-76
2022/05/01 08:50:10;;;;;;;22.42;20.23;;;15.90;97.20;;;;;;1713167;28;20838;-76
2022/05/01 08:51:01;;;;;;;22.20;19.63;;;16.00;97.20;;;;;;1713057;28;20226;-76
2022/05/01 08:51:54;;;;;;;21.23;19.00;;;16.00;97.20;;;;;;1713135;28;20226;-76
2022/05/01 08:52:48;;;;;;;21.20;19.00;;;16.10;97.20;;;;;;1713158;28;20193;-76
2022/05/01 08:53:42;;;;;;;21.42;19.02;;;16.20;97.20;;;;;;1713131;28;20795;-80
2022/05/01 08:54:34;;;;;;;20.10;17.75;;;16.20;97.20;;;;;;1713543;28;20234;-81
2022/05/01 08:55:26;;;;;;;20.52;18.33;;;16.30;97.20;;;;;;1713298;28;20236;-77
2022/05/01 08:56:18;;;;;;;20.48;18.38;;;16.30;97.20;;;;;;1713185;28;20648;-78
2022/05/01 08:57:10;;;;;;;20.15;18.05;;;16.40;97.20;;;;;;1712859;28;20319;-77
2022/05/01 08:58:02;;;;;;;19.85;17.85;;;16.50;97.20;;;;;;1713183;28;20206;-77
2022/05/01 08:58:54;;;;;;;20.30;18.10;;;16.50;97.20;;;;;;1713725;28;20197;-76
2022/05/01 08:59:46;;;;;;;20.38;17.80;;;16.50;97.20;;;;;;1713486;28;20236;-77
2022/05/01 09:00:37;;;;;;;21.27;19.08;;;16.60;97.20;;;;;;1712635;28;20233;-77
2022/05/01 09:01:30;;;;;;;20.45;18.35;;;16.60;97.20;;;;;;1712489;28;20202;-77
2022/05/01 09:02:22;;;;;;;19.58;17.52;;;16.60;97.20;;;;;;1713166;28;20202;-77
2022/05/01 09:03:13;;;;;;;17.67;15.93;;;16.70;97.20;;;;;;1712590;28;20233;-78
2022/05/01 09:04:06;;;;;;;19.23;17.30;;;16.70;97.20;;;;;;1712850;28;20294;-77
2022/05/01 09:04:58;;;;;;;18.17;16.27;;;16.80;97.20;;;;;;1712633;28;20453;-77
2022/05/01 09:05:50;;;;;;;17.83;14.95;;;16.90;97.20;;;;;;1713385;28;20213;-78
2022/05/01 09:06:42;;;;;;;17.42;14.80;;;16.90;97.20;;;;;;1712779;28;20232;-77
2022/05/01 09:07:34;;;;;;;16.50;14.90;;;16.90;97.20;;;;;;1713165;28;20196;-77
2022/05/01 09:08:29;;;;;;;17.80;16.00;;;17.00;97.20;;;;;;1712767;28;20204;-78
2022/05/01 09:09:22;;;;;;;16.17;14.52;;;17.10;97.20;;;;;;1713211;28;20214;-78
2022/05/01 09:10:14;;;;;;;16.55;14.82;;;17.20;97.20;;;;;;1712355;28;20593;-78
2022/05/01 09:13:24;;;;;;;16.98;15.32;;;17.30;97.20;;;;;;1713306;28;20298;-78
2022/05/01 09:14:15;;;;;;;16.52;14.82;;;17.40;97.20;;;;;;1713338;28;20226;-78
2022/05/01 09:15:08;;;;;;;16.40;14.70;;;17.50;97.20;;;;;;1713657;28;20200;-78
2022/05/01 09:16:11;;;;;;;16.88;15.27;;;17.60;97.20;;;;;;1713184;28;20217;-77
2022/05/01 09:17:17;;;;;;;16.83;14.38;;;17.70;97.20;;;;;;1713364;28;20233;-78
2022/05/01 09:18:09;;;;;;;15.20;13.70;;;17.90;97.20;;;;;;1712294;28;20252;-78
2022/05/01 09:19:01;;;;;;;16.73;15.13;;;18.00;97.20;;;;;;1714052;28;20233;-79
2022/05/01 09:19:53;;;;;;;15.40;13.90;;;18.10;97.20;;;;;;1715024;28;20202;-79
2022/05/01 09:21:01;;;;;;;16.48;13.82;;;18.20;97.20;;;;;;1714446;28;20222;-79
2022/05/01 09:21:54;;;;;;;15.55;13.95;;;18.30;97.20;;;;;;1712311;28;20580;-79
2022/05/01 09:22:52;;;;;;;17.90;14.90;;;18.30;97.20;;;;;;1714619;28;20186;-79
2022/05/01 09:23:46;;;;;;;16.00;14.52;;;18.40;97.20;;;;;;1714028;28;20256;-79
2022/05/01 09:24:38;;;;;;;16.15;13.75;;;18.40;97.20;;;;;;1714519;28;20205;-79
2022/05/01 09:25:30;;;;;;;14.82;13.43;;;18.50;97.20;;;;;;1714507;28;20194;-78
2022/05/01 09:26:22;;;;;;;15.98;14.20;;;18.50;97.20;;;;;;1714136;28;20229;-79
2022/05/01 09:27:27;;;;;;;17.02;15.43;;;18.50;97.20;;;;;;1714239;28;20194;-79
2022/05/01 09:28:19;;;;;;;16.35;14.85;;;18.50;97.20;;;;;;1713102;28;20566;-79
2022/05/01 09:29:23;;;;;;;16.90;15.18;;;18.50;97.20;;;;;;1713197;28;20708;-78
2022/05/01 09:30:16;;;;;;;17.17;15.38;;;18.50;97.20;;;;;;1712909;28;20602;-79
2022/05/01 09:31:08;;;;;;;16.05;14.23;;;18.50;97.20;;;;;;1712605;28;20254;-79
2022/05/01 09:32:00;;;;;;;15.60;14.07;;;18.50;97.20;;;;;;1713685;28;20202;-77
2022/05/01 09:32:54;;;;;;;16.55;14.88;;;18.50;97.20;;;;;;1711737;28;20190;-76
2022/05/01 09:33:45;;;;;;;15.55;14.05;;;18.50;97.20;;;;;;1712204;28;20268;-77